Terminal Aerodrome Forecast
Issued by NWS

Home | Current Version | Previous Version | Text Only | Print | Product List | Glossary On
Versions: 1 2 3 4 5 6 7 8 9 10 11 12 13 14 15 16 17 18 19 20 21 22 23 24 25 26 27 28 29 30 31 32
000
FTUS43 KDMX 250532
TAFFOD
TAF
KFOD 250532Z 2506/2606 21010KT 6SM BR OVC006
     FM251200 19008KT P6SM SCT012 BKN035
     FM251500 19013KT P6SM BKN250
     FM260000 14006KT P6SM BKN250=

USA.gov is the U.S. government's official web portal to all federal, state and local government web resources and services.